sensor_id;sensor_type;location;lat;lon;timestamp;P1;durP1;ratioP1;P2;durP2;ratioP2
54005;SDS011;39919;38.160;-122.260;2023-05-31T00:01:01;1.40;;;0.00;;
54005;SDS011;39919;38.160;-122.260;2023-05-31T00:03:31;0.57;;;0.00;;
54005;SDS011;39919;38.160;-122.260;2023-05-31T00:06:02;0.40;;;0.00;;
54005;SDS011;39919;38.160;-122.260;2023-05-31T00:08:31;0.00;;;0.00;;
54005;SDS011;39919;38.160;-122.260;2023-05-31T00:11:01;0.45;;;0.00;;
54005;SDS011;39919;38.160;-122.260;2023-05-31T00:13:39;1.25;;;0.00;;
54005;SDS011;39919;38.160;-122.260;2023-05-31T00:16:09;0.20;;;0.00;;
54005;SDS011;39919;38.160;-122.260;2023-05-31T00:18:46;0.10;;;0.00;;
54005;SDS011;39919;38.160;-122.260;2023-05-31T00:21:18;0.50;;;0.00;;
54005;SDS011;39919;38.160;-122.260;2023-05-31T00:23:51;1.13;;;0.00;;
54005;SDS011;39919;38.160;-122.260;2023-05-31T00:26:20;0.32;;;0.00;;
54005;SDS011;39919;38.160;-122.260;2023-05-31T00:28:54;0.20;;;0.00;;
54005;SDS011;39919;38.160;-122.260;2023-05-31T00:31:23;0.63;;;0.08;;
54005;SDS011;39919;38.160;-122.260;2023-05-31T00:33:54;4.60;;;0.00;;
54005;SDS011;39919;38.160;-122.260;2023-05-31T00:36:24;1.73;;;0.00;;
54005;SDS011;39919;38.160;-122.260;2023-05-31T00:39:01;0.32;;;0.00;;
54005;SDS011;39919;38.160;-122.260;2023-05-31T00:41:33;0.38;;;0.00;;
54005;SDS011;39919;38.160;-122.260;2023-05-31T00:44:04;1.17;;;0.00;;
54005;SDS011;39919;38.160;-122.260;2023-05-31T00:46:33;0.10;;;0.00;;
54005;SDS011;39919;38.160;-122.260;2023-05-31T00:49:04;0.20;;;0.00;;
54005;SDS011;39919;38.160;-122.260;2023-05-31T00:51:35;0.00;;;0.00;;
54005;SDS011;39919;38.160;-122.260;2023-05-31T00:54:05;0.20;;;0.00;;
54005;SDS011;39919;38.160;-122.260;2023-05-31T00:56:37;0.05;;;0.00;;
54005;SDS011;39919;38.160;-122.260;2023-05-31T00:59:10;0.20;;;0.00;;
54005;SDS011;39919;38.160;-122.260;2023-05-31T01:01:42;0.10;;;0.00;;
54005;SDS011;39919;38.160;-122.260;2023-05-31T01:04:12;0.08;;;0.00;;
54005;SDS011;39919;38.160;-122.260;2023-05-31T01:06:41;0.10;;;0.00;;
54005;SDS011;39919;38.160;-122.260;2023-05-31T01:09:12;0.03;;;0.00;;
54005;SDS011;39919;38.160;-122.260;2023-05-31T01:11:49;0.00;;;0.00;;
54005;SDS011;39919;38.160;-122.260;2023-05-31T01:14:39;0.00;;;0.00;;
54005;SDS011;39919;38.160;-122.260;2023-05-31T01:17:23;0.10;;;0.00;;
54005;SDS011;39919;38.160;-122.260;2023-05-31T01:19:57;1.30;;;0.00;;
54005;SDS011;39919;38.160;-122.260;2023-05-31T01:22:45;0.00;;;0.00;;
54005;SDS011;39919;38.160;-122.260;2023-05-31T01:27:57;0.00;;;0.00;;
54005;SDS011;39919;38.160;-122.260;2023-05-31T01:30:33;0.55;;;0.00;;
54005;SDS011;39919;38.160;-122.260;2023-05-31T01:33:11;0.23;;;0.00;;
54005;SDS011;39919;38.160;-122.260;2023-05-31T01:35:41;0.50;;;0.00;;
54005;SDS011;39919;38.160;-122.260;2023-05-31T01:38:13;0.00;;;0.00;;
54005;SDS011;39919;38.160;-122.260;2023-05-31T01:40:45;1.23;;;0.00;;
54005;SDS011;39919;38.160;-122.260;2023-05-31T01:43:16;0.38;;;0.00;;
54005;SDS011;39919;38.160;-122.260;2023-05-31T01:45:47;0.00;;;0.00;;
54005;SDS011;39919;38.160;-122.260;2023-05-31T01:48:17;0.10;;;0.00;;
54005;SDS011;39919;38.160;-122.260;2023-05-31T01:50:50;0.00;;;0.00;;
54005;SDS011;39919;38.160;-122.260;2023-05-31T01:53:29;0.40;;;0.00;;
54005;SDS011;39919;38.160;-122.260;2023-05-31T01:56:03;0.00;;;0.00;;
54005;SDS011;39919;38.160;-122.260;2023-05-31T01:58:52;1.45;;;0.00;;
54005;SDS011;39919;38.160;-122.260;2023-05-31T02:01:27;0.00;;;0.00;;
54005;SDS011;39919;38.160;-122.260;2023-05-31T02:03:57;0.20;;;0.00;;
54005;SDS011;39919;38.160;-122.260;2023-05-31T02:06:29;0.00;;;0.00;;
54005;SDS011;39919;38.160;-122.260;2023-05-31T02:09:03;0.10;;;0.00;;
54005;SDS011;39919;38.160;-122.260;2023-05-31T02:11:33;5.72;;;0.00;;
54005;SDS011;39919;38.160;-122.260;2023-05-31T02:16:44;0.00;;;0.00;;
54005;SDS011;39919;38.160;-122.260;2023-05-31T02:19:14;0.85;;;0.00;;
54005;SDS011;39919;38.160;-122.260;2023-05-31T02:21:45;0.10;;;0.00;;
54005;SDS011;39919;38.160;-122.260;2023-05-31T02:24:14;0.80;;;0.00;;
54005;SDS011;39919;38.160;-122.260;2023-05-31T02:26:43;0.03;;;0.00;;
54005;SDS011;39919;38.160;-122.260;2023-05-31T02:29:24;0.10;;;0.00;;
54005;SDS011;39919;38.160;-122.260;2023-05-31T02:31:58;0.47;;;0.00;;
54005;SDS011;39919;38.160;-122.260;2023-05-31T02:34:28;0.30;;;0.00;;
54005;SDS011;39919;38.160;-122.260;2023-05-31T02:36:57;3.13;;;0.00;;
54005;SDS011;39919;38.160;-122.260;2023-05-31T02:39:29;0.20;;;0.00;;
54005;SDS011;39919;38.160;-122.260;2023-05-31T02:42:07;0.52;;;0.00;;
54005;SDS011;39919;38.160;-122.260;2023-05-31T02:44:41;0.68;;;0.00;;
54005;SDS011;39919;38.160;-122.260;2023-05-31T02:47:13;0.15;;;0.00;;
54005;SDS011;39919;38.160;-122.260;2023-05-31T02:49:51;0.28;;;0.00;;
54005;SDS011;39919;38.160;-122.260;2023-05-31T02:52:26;1.00;;;0.10;;
54005;SDS011;39919;38.160;-122.260;2023-05-31T02:54:58;0.08;;;0.00;;
54005;SDS011;39919;38.160;-122.260;2023-05-31T02:57:37;0.10;;;0.00;;
54005;SDS011;39919;38.160;-122.260;2023-05-31T03:00:14;1.20;;;0.00;;
54005;SDS011;39919;38.160;-122.260;2023-05-31T03:02:47;0.20;;;0.00;;
54005;SDS011;39919;38.160;-122.260;2023-05-31T03:05:31;0.25;;;0.15;;
54005;SDS011;39919;38.160;-122.260;2023-05-31T03:08:00;0.00;;;0.00;;
54005;SDS011;39919;38.160;-122.260;2023-05-31T03:10:32;0.22;;;0.00;;
54005;SDS011;39919;38.160;-122.260;2023-05-31T03:13:02;0.45;;;0.00;;
54005;SDS011;39919;38.160;-122.260;2023-05-31T03:15:38;0.00;;;0.00;;
54005;SDS011;39919;38.160;-122.260;2023-05-31T03:18:07;0.20;;;0.00;;
54005;SDS011;39919;38.160;-122.260;2023-05-31T03:20:36;0.00;;;0.00;;
54005;SDS011;39919;38.160;-122.260;2023-05-31T03:23:11;0.32;;;0.00;;
54005;SDS011;39919;38.160;-122.260;2023-05-31T03:25:46;0.13;;;0.00;;
54005;SDS011;39919;38.160;-122.260;2023-05-31T03:28:15;4.45;;;0.00;;
54005;SDS011;39919;38.160;-122.260;2023-05-31T03:30:50;0.22;;;0.00;;
54005;SDS011;39919;38.160;-122.260;2023-05-31T03:33:21;0.00;;;0.00;;
54005;SDS011;39919;38.160;-122.260;2023-05-31T03:35:58;0.00;;;0.00;;
54005;SDS011;39919;38.160;-122.260;2023-05-31T03:38:34;0.00;;;0.00;;
54005;SDS011;39919;38.160;-122.260;2023-05-31T03:41:03;0.10;;;0.00;;
54005;SDS011;39919;38.160;-122.260;2023-05-31T03:43:37;0.20;;;0.00;;
54005;SDS011;39919;38.160;-122.260;2023-05-31T03:46:18;0.68;;;0.00;;
54005;SDS011;39919;38.160;-122.260;2023-05-31T03:48:52;0.00;;;0.00;;
54005;SDS011;39919;38.160;-122.260;2023-05-31T03:51:21;0.10;;;0.00;;
54005;SDS011;39919;38.160;-122.260;2023-05-31T03:53:56;0.45;;;0.00;;
54005;SDS011;39919;38.160;-122.260;2023-05-31T03:56:25;0.15;;;0.00;;
54005;SDS011;39919;38.160;-122.260;2023-05-31T03:58:54;0.10;;;0.00;;
54005;SDS011;39919;38.160;-122.260;2023-05-31T04:01:26;2.75;;;0.00;;
54005;SDS011;39919;38.160;-122.260;2023-05-31T04:03:58;0.00;;;0.00;;
54005;SDS011;39919;38.160;-122.260;2023-05-31T04:06:27;1.65;;;0.32;;
54005;SDS011;39919;38.160;-122.260;2023-05-31T04:09:00;1.17;;;0.00;;
54005;SDS011;39919;38.160;-122.260;2023-05-31T04:11:30;0.20;;;0.00;;
54005;SDS011;39919;38.160;-122.260;2023-05-31T04:14:00;1.02;;;0.00;;
54005;SDS011;39919;38.160;-122.260;2023-05-31T04:16:31;0.35;;;0.00;;
54005;SDS011;39919;38.160;-122.260;2023-05-31T04:19:03;2.67;;;0.00;;
54005;SDS011;39919;38.160;-122.260;2023-05-31T04:21:32;0.20;;;0.03;;
54005;SDS011;39919;38.160;-122.260;2023-05-31T04:24:08;1.05;;;0.10;;
54005;SDS011;39919;38.160;-122.260;2023-05-31T04:29:37;0.10;;;0.00;;
54005;SDS011;39919;38.160;-122.260;2023-05-31T04:32:08;0.75;;;0.10;;
54005;SDS011;39919;38.160;-122.260;2023-05-31T04:34:41;0.30;;;0.00;;
54005;SDS011;39919;38.160;-122.260;2023-05-31T04:37:10;0.35;;;0.10;;
54005;SDS011;39919;38.160;-122.260;2023-05-31T04:39:40;2.08;;;0.10;;
54005;SDS011;39919;38.160;-122.260;2023-05-31T04:42:12;1.75;;;0.20;;
54005;SDS011;39919;38.160;-122.260;2023-05-31T04:45:01;0.57;;;0.15;;
54005;SDS011;39919;38.160;-122.260;2023-05-31T04:47:49;6.93;;;0.10;;
54005;SDS011;39919;38.160;-122.260;2023-05-31T04:50:25;5.43;;;0.63;;
54005;SDS011;39919;38.160;-122.260;2023-05-31T04:52:56;2.15;;;0.22;;
54005;SDS011;39919;38.160;-122.260;2023-05-31T04:55:26;4.05;;;0.20;;
54005;SDS011;39919;38.160;-122.260;2023-05-31T04:57:55;6.05;;;0.63;;
54005;SDS011;39919;38.160;-122.260;2023-05-31T05:00:25;6.13;;;0.10;;
54005;SDS011;39919;38.160;-122.260;2023-05-31T05:02:56;4.60;;;0.10;;
54005;SDS011;39919;38.160;-122.260;2023-05-31T05:05:26;2.60;;;0.30;;
54005;SDS011;39919;38.160;-122.260;2023-05-31T05:07:58;0.88;;;0.20;;
54005;SDS011;39919;38.160;-122.260;2023-05-31T05:10:29;2.10;;;0.20;;
54005;SDS011;39919;38.160;-122.260;2023-05-31T05:12:59;3.05;;;0.22;;
54005;SDS011;39919;38.160;-122.260;2023-05-31T05:15:30;1.83;;;0.17;;
54005;SDS011;39919;38.160;-122.260;2023-05-31T05:18:01;3.25;;;0.60;;
54005;SDS011;39919;38.160;-122.260;2023-05-31T05:20:33;1.52;;;0.10;;
54005;SDS011;39919;38.160;-122.260;2023-05-31T05:23:06;2.65;;;0.73;;
54005;SDS011;39919;38.160;-122.260;2023-05-31T05:25:40;1.40;;;0.10;;
54005;SDS011;39919;38.160;-122.260;2023-05-31T05:28:12;1.90;;;0.20;;
54005;SDS011;39919;38.160;-122.260;2023-05-31T05:30:41;1.50;;;0.45;;
54005;SDS011;39919;38.160;-122.260;2023-05-31T05:33:19;1.65;;;0.13;;
54005;SDS011;39919;38.160;-122.260;2023-05-31T05:35:52;1.95;;;0.20;;
54005;SDS011;39919;38.160;-122.260;2023-05-31T05:38:25;2.80;;;0.10;;
54005;SDS011;39919;38.160;-122.260;2023-05-31T05:40:54;0.47;;;0.10;;
54005;SDS011;39919;38.160;-122.260;2023-05-31T05:43:26;1.98;;;0.20;;
54005;SDS011;39919;38.160;-122.260;2023-05-31T05:45:58;4.13;;;0.30;;
54005;SDS011;39919;38.160;-122.260;2023-05-31T05:48:33;0.57;;;0.20;;
54005;SDS011;39919;38.160;-122.260;2023-05-31T05:51:02;2.60;;;0.15;;
54005;SDS011;39919;38.160;-122.260;2023-05-31T05:53:33;1.65;;;0.10;;
54005;SDS011;39919;38.160;-122.260;2023-05-31T05:56:02;0.63;;;0.10;;
54005;SDS011;39919;38.160;-122.260;2023-05-31T05:58:32;2.15;;;0.10;;
54005;SDS011;39919;38.160;-122.260;2023-05-31T06:01:01;0.80;;;0.10;;
54005;SDS011;39919;38.160;-122.260;2023-05-31T06:03:32;0.70;;;0.10;;
54005;SDS011;39919;38.160;-122.260;2023-05-31T06:06:01;2.00;;;0.20;;
54005;SDS011;39919;38.160;-122.260;2023-05-31T06:08:30;1.38;;;0.20;;
54005;SDS011;39919;38.160;-122.260;2023-05-31T06:11:00;0.82;;;0.10;;
54005;SDS011;39919;38.160;-122.260;2023-05-31T06:13:29;2.28;;;0.52;;
54005;SDS011;39919;38.160;-122.260;2023-05-31T06:15:58;0.77;;;0.20;;
54005;SDS011;39919;38.160;-122.260;2023-05-31T06:18:27;4.07;;;0.30;;
54005;SDS011;39919;38.160;-122.260;2023-05-31T06:21:02;1.40;;;0.20;;
54005;SDS011;39919;38.160;-122.260;2023-05-31T06:23:31;0.77;;;0.10;;
54005;SDS011;39919;38.160;-122.260;2023-05-31T06:26:00;0.65;;;0.10;;
54005;SDS011;39919;38.160;-122.260;2023-05-31T06:28:32;0.43;;;0.10;;
54005;SDS011;39919;38.160;-122.260;2023-05-31T06:31:02;1.63;;;0.20;;
54005;SDS011;39919;38.160;-122.260;2023-05-31T06:33:34;2.90;;;0.85;;
54005;SDS011;39919;38.160;-122.260;2023-05-31T06:36:05;3.33;;;0.20;;
54005;SDS011;39919;38.160;-122.260;2023-05-31T06:38:37;0.70;;;0.20;;
54005;SDS011;39919;38.160;-122.260;2023-05-31T06:41:10;0.60;;;0.10;;
54005;SDS011;39919;38.160;-122.260;2023-05-31T06:43:39;1.88;;;0.20;;
54005;SDS011;39919;38.160;-122.260;2023-05-31T06:46:08;0.35;;;0.00;;
54005;SDS011;39919;38.160;-122.260;2023-05-31T06:48:38;2.63;;;0.10;;
54005;SDS011;39919;38.160;-122.260;2023-05-31T06:51:09;1.45;;;0.10;;
54005;SDS011;39919;38.160;-122.260;2023-05-31T06:53:38;0.45;;;0.10;;
54005;SDS011;39919;38.160;-122.260;2023-05-31T06:56:07;0.93;;;0.20;;
54005;SDS011;39919;38.160;-122.260;2023-05-31T06:58:39;2.13;;;0.20;;
54005;SDS011;39919;38.160;-122.260;2023-05-31T07:01:08;1.50;;;0.10;;
54005;SDS011;39919;38.160;-122.260;2023-05-31T07:03:37;1.00;;;0.10;;
54005;SDS011;39919;38.160;-122.260;2023-05-31T07:06:11;1.42;;;0.10;;
54005;SDS011;39919;38.160;-122.260;2023-05-31T07:08:42;1.95;;;0.10;;
54005;SDS011;39919;38.160;-122.260;2023-05-31T07:11:12;0.10;;;0.10;;
54005;SDS011;39919;38.160;-122.260;2023-05-31T07:13:41;0.38;;;0.10;;
54005;SDS011;39919;38.160;-122.260;2023-05-31T07:16:10;0.65;;;0.25;;
54005;SDS011;39919;38.160;-122.260;2023-05-31T07:18:39;1.42;;;0.20;;
54005;SDS011;39919;38.160;-122.260;2023-05-31T07:21:08;0.85;;;0.20;;
54005;SDS011;39919;38.160;-122.260;2023-05-31T07:23:39;4.10;;;0.40;;
54005;SDS011;39919;38.160;-122.260;2023-05-31T07:26:11;2.83;;;0.10;;
54005;SDS011;39919;38.160;-122.260;2023-05-31T07:28:41;1.15;;;0.20;;
54005;SDS011;39919;38.160;-122.260;2023-05-31T07:31:11;1.63;;;0.20;;
54005;SDS011;39919;38.160;-122.260;2023-05-31T07:33:41;0.57;;;0.10;;
54005;SDS011;39919;38.160;-122.260;2023-05-31T07:36:15;0.82;;;0.10;;
54005;SDS011;39919;38.160;-122.260;2023-05-31T07:38:44;0.95;;;0.10;;
54005;SDS011;39919;38.160;-122.260;2023-05-31T07:41:13;2.03;;;0.10;;
54005;SDS011;39919;38.160;-122.260;2023-05-31T07:43:45;0.82;;;0.10;;
54005;SDS011;39919;38.160;-122.260;2023-05-31T07:46:14;1.73;;;0.10;;
54005;SDS011;39919;38.160;-122.260;2023-05-31T07:48:43;0.80;;;0.15;;
54005;SDS011;39919;38.160;-122.260;2023-05-31T07:51:16;0.73;;;0.10;;
54005;SDS011;39919;38.160;-122.260;2023-05-31T07:53:48;0.75;;;0.10;;
54005;SDS011;39919;38.160;-122.260;2023-05-31T07:56:18;1.65;;;0.10;;
54005;SDS011;39919;38.160;-122.260;2023-05-31T07:58:47;1.65;;;0.10;;
54005;SDS011;39919;38.160;-122.260;2023-05-31T08:01:16;0.73;;;0.10;;
54005;SDS011;39919;38.160;-122.260;2023-05-31T08:03:53;0.20;;;0.20;;
54005;SDS011;39919;38.160;-122.260;2023-05-31T08:06:34;0.50;;;0.20;;
54005;SDS011;39919;38.160;-122.260;2023-05-31T08:09:04;0.93;;;0.10;;
54005;SDS011;39919;38.160;-122.260;2023-05-31T08:11:33;0.98;;;0.20;;
54005;SDS011;39919;38.160;-122.260;2023-05-31T08:14:05;0.20;;;0.10;;
54005;SDS011;39919;38.160;-122.260;2023-05-31T08:16:36;0.60;;;0.10;;
54005;SDS011;39919;38.160;-122.260;2023-05-31T08:19:12;0.68;;;0.10;;
54005;SDS011;39919;38.160;-122.260;2023-05-31T08:21:43;2.03;;;0.13;;
54005;SDS011;39919;38.160;-122.260;2023-05-31T08:24:14;1.02;;;0.20;;
54005;SDS011;39919;38.160;-122.260;2023-05-31T08:26:49;0.35;;;0.10;;
54005;SDS011;39919;38.160;-122.260;2023-05-31T08:29:35;0.75;;;0.20;;
54005;SDS011;39919;38.160;-122.260;2023-05-31T08:32:04;0.75;;;0.10;;
54005;SDS011;39919;38.160;-122.260;2023-05-31T08:34:34;1.27;;;0.52;;
54005;SDS011;39919;38.160;-122.260;2023-05-31T08:37:05;0.68;;;0.17;;
54005;SDS011;39919;38.160;-122.260;2023-05-31T08:39:34;0.30;;;0.20;;
54005;SDS011;39919;38.160;-122.260;2023-05-31T08:42:07;1.83;;;0.10;;
54005;SDS011;39919;38.160;-122.260;2023-05-31T08:44:42;2.33;;;0.63;;
54005;SDS011;39919;38.160;-122.260;2023-05-31T08:47:12;1.00;;;0.13;;
54005;SDS011;39919;38.160;-122.260;2023-05-31T08:49:49;0.95;;;0.30;;
54005;SDS011;39919;38.160;-122.260;2023-05-31T08:52:26;1.90;;;0.10;;
54005;SDS011;39919;38.160;-122.260;2023-05-31T08:55:02;2.47;;;0.15;;
54005;SDS011;39919;38.160;-122.260;2023-05-31T08:57:33;0.20;;;0.20;;
54005;SDS011;39919;38.160;-122.260;2023-05-31T09:00:06;3.45;;;0.30;;
54005;SDS011;39919;38.160;-122.260;2023-05-31T09:02:46;1.55;;;0.15;;
54005;SDS011;39919;38.160;-122.260;2023-05-31T09:05:16;0.47;;;0.20;;
54005;SDS011;39919;38.160;-122.260;2023-05-31T09:07:47;1.40;;;0.40;;
54005;SDS011;39919;38.160;-122.260;2023-05-31T09:10:22;0.52;;;0.30;;
54005;SDS011;39919;38.160;-122.260;2023-05-31T09:12:52;2.30;;;0.30;;
54005;SDS011;39919;38.160;-122.260;2023-05-31T09:15:22;1.33;;;0.30;;
54005;SDS011;39919;38.160;-122.260;2023-05-31T09:17:53;1.83;;;0.40;;
54005;SDS011;39919;38.160;-122.260;2023-05-31T09:20:30;3.28;;;0.30;;
54005;SDS011;39919;38.160;-122.260;2023-05-31T09:23:04;2.95;;;0.30;;
54005;SDS011;39919;38.160;-122.260;2023-05-31T09:25:44;5.72;;;1.75;;
54005;SDS011;39919;38.160;-122.260;2023-05-31T09:28:17;2.58;;;0.73;;
54005;SDS011;39919;38.160;-122.260;2023-05-31T09:30:48;3.83;;;0.30;;
54005;SDS011;39919;38.160;-122.260;2023-05-31T09:33:39;2.47;;;0.77;;
54005;SDS011;39919;38.160;-122.260;2023-05-31T09:36:09;5.00;;;0.40;;
54005;SDS011;39919;38.160;-122.260;2023-05-31T09:38:41;2.45;;;0.20;;
54005;SDS011;39919;38.160;-122.260;2023-05-31T09:41:14;4.35;;;0.40;;
54005;SDS011;39919;38.160;-122.260;2023-05-31T09:43:47;11.07;;;1.15;;
54005;SDS011;39919;38.160;-122.260;2023-05-31T09:46:17;3.60;;;0.60;;
54005;SDS011;39919;38.160;-122.260;2023-05-31T09:48:56;5.82;;;0.40;;
54005;SDS011;39919;38.160;-122.260;2023-05-31T09:51:29;5.10;;;0.47;;
54005;SDS011;39919;38.160;-122.260;2023-05-31T09:54:01;4.53;;;0.28;;
54005;SDS011;39919;38.160;-122.260;2023-05-31T09:59:06;7.93;;;0.40;;
54005;SDS011;39919;38.160;-122.260;2023-05-31T10:01:38;5.10;;;0.68;;
54005;SDS011;39919;38.160;-122.260;2023-05-31T10:04:14;4.30;;;0.70;;
54005;SDS011;39919;38.160;-122.260;2023-05-31T10:06:53;5.93;;;0.40;;
54005;SDS011;39919;38.160;-122.260;2023-05-31T10:09:32;5.75;;;0.65;;
54005;SDS011;39919;38.160;-122.260;2023-05-31T10:12:10;2.03;;;0.30;;
54005;SDS011;39919;38.160;-122.260;2023-05-31T10:14:42;4.85;;;0.45;;
54005;SDS011;39919;38.160;-122.260;2023-05-31T10:17:16;5.20;;;0.80;;
54005;SDS011;39919;38.160;-122.260;2023-05-31T10:19:54;6.22;;;0.55;;
54005;SDS011;39919;38.160;-122.260;2023-05-31T10:22:29;5.40;;;0.70;;
54005;SDS011;39919;38.160;-122.260;2023-05-31T10:25:02;7.18;;;0.80;;
54005;SDS011;39919;38.160;-122.260;2023-05-31T10:27:36;6.93;;;0.70;;
54005;SDS011;39919;38.160;-122.260;2023-05-31T10:30:09;11.23;;;1.15;;
54005;SDS011;39919;38.160;-122.260;2023-05-31T10:32:42;14.25;;;1.50;;
54005;SDS011;39919;38.160;-122.260;2023-05-31T10:35:13;8.05;;;0.93;;
54005;SDS011;39919;38.160;-122.260;2023-05-31T10:37:42;5.95;;;0.65;;
54005;SDS011;39919;38.160;-122.260;2023-05-31T10:40:15;9.27;;;0.88;;
54005;SDS011;39919;38.160;-122.260;2023-05-31T10:42:48;4.18;;;0.82;;
54005;SDS011;39919;38.160;-122.260;2023-05-31T10:45:23;4.55;;;0.65;;
54005;SDS011;39919;38.160;-122.260;2023-05-31T10:47:56;3.95;;;0.50;;
54005;SDS011;39919;38.160;-122.260;2023-05-31T10:50:30;3.08;;;0.60;;
54005;SDS011;39919;38.160;-122.260;2023-05-31T10:56:25;10.80;;;0.75;;
54005;SDS011;39919;38.160;-122.260;2023-05-31T10:58:56;8.77;;;1.27;;
54005;SDS011;39919;38.160;-122.260;2023-05-31T11:01:28;5.00;;;0.63;;
54005;SDS011;39919;38.160;-122.260;2023-05-31T11:03:57;3.70;;;1.00;;
54005;SDS011;39919;38.160;-122.260;2023-05-31T11:06:31;12.55;;;1.33;;
54005;SDS011;39919;38.160;-122.260;2023-05-31T11:09:03;8.20;;;1.13;;
54005;SDS011;39919;38.160;-122.260;2023-05-31T11:11:46;8.55;;;1.20;;
54005;SDS011;39919;38.160;-122.260;2023-05-31T11:14:26;8.82;;;1.15;;
54005;SDS011;39919;38.160;-122.260;2023-05-31T11:17:15;8.82;;;1.33;;
54005;SDS011;39919;38.160;-122.260;2023-05-31T11:19:51;8.43;;;1.10;;
54005;SDS011;39919;38.160;-122.260;2023-05-31T11:22:27;5.68;;;0.75;;
54005;SDS011;39919;38.160;-122.260;2023-05-31T11:24:56;5.60;;;1.10;;
54005;SDS011;39919;38.160;-122.260;2023-05-31T11:27:37;14.65;;;1.67;;
54005;SDS011;39919;38.160;-122.260;2023-05-31T11:30:07;19.65;;;1.98;;
54005;SDS011;39919;38.160;-122.260;2023-05-31T11:32:54;11.57;;;1.77;;
54005;SDS011;39919;38.160;-122.260;2023-05-31T11:35:25;10.50;;;1.95;;
54005;SDS011;39919;38.160;-122.260;2023-05-31T11:38:04;10.88;;;2.35;;
54005;SDS011;39919;38.160;-122.260;2023-05-31T11:40:36;10.80;;;1.63;;
54005;SDS011;39919;38.160;-122.260;2023-05-31T11:43:07;6.30;;;1.40;;
54005;SDS011;39919;38.160;-122.260;2023-05-31T11:45:40;7.85;;;1.50;;
54005;SDS011;39919;38.160;-122.260;2023-05-31T11:48:26;12.88;;;2.38;;
54005;SDS011;39919;38.160;-122.260;2023-05-31T11:53:31;6.20;;;1.00;;
54005;SDS011;39919;38.160;-122.260;2023-05-31T11:56:00;8.02;;;1.98;;
54005;SDS011;39919;38.160;-122.260;2023-05-31T11:58:31;12.65;;;1.67;;
54005;SDS011;39919;38.160;-122.260;2023-05-31T12:01:00;13.02;;;1.85;;
54005;SDS011;39919;38.160;-122.260;2023-05-31T12:03:29;12.73;;;2.83;;
54005;SDS011;39919;38.160;-122.260;2023-05-31T12:05:58;7.60;;;1.67;;
54005;SDS011;39919;38.160;-122.260;2023-05-31T12:08:30;10.60;;;1.17;;
54005;SDS011;39919;38.160;-122.260;2023-05-31T12:11:03;10.18;;;1.35;;
54005;SDS011;39919;38.160;-122.260;2023-05-31T12:13:34;7.75;;;1.88;;
54005;SDS011;39919;38.160;-122.260;2023-05-31T12:16:04;11.82;;;1.50;;
54005;SDS011;39919;38.160;-122.260;2023-05-31T12:18:33;13.13;;;2.40;;
54005;SDS011;39919;38.160;-122.260;2023-05-31T12:21:11;11.40;;;1.70;;
54005;SDS011;39919;38.160;-122.260;2023-05-31T12:23:53;12.82;;;1.63;;
54005;SDS011;39919;38.160;-122.260;2023-05-31T12:26:23;14.98;;;2.00;;
54005;SDS011;39919;38.160;-122.260;2023-05-31T12:28:56;8.75;;;1.55;;
54005;SDS011;39919;38.160;-122.260;2023-05-31T12:31:26;8.63;;;2.20;;
54005;SDS011;39919;38.160;-122.260;2023-05-31T12:33:58;10.95;;;1.77;;
54005;SDS011;39919;38.160;-122.260;2023-05-31T12:36:27;13.00;;;2.03;;
54005;SDS011;39919;38.160;-122.260;2023-05-31T12:39:06;13.32;;;2.25;;
54005;SDS011;39919;38.160;-122.260;2023-05-31T12:41:37;15.95;;;2.47;;
54005;SDS011;39919;38.160;-122.260;2023-05-31T12:44:11;15.52;;;1.77;;
54005;SDS011;39919;38.160;-122.260;2023-05-31T12:46:42;8.73;;;2.05;;
54005;SDS011;39919;38.160;-122.260;2023-05-31T12:49:13;17.02;;;1.65;;
54005;SDS011;39919;38.160;-122.260;2023-05-31T12:51:46;13.32;;;1.85;;
54005;SDS011;39919;38.160;-122.260;2023-05-31T12:54:17;8.23;;;1.67;;
54005;SDS011;39919;38.160;-122.260;2023-05-31T12:56:47;12.80;;;1.45;;
54005;SDS011;39919;38.160;-122.260;2023-05-31T12:59:17;10.57;;;1.48;;
54005;SDS011;39919;38.160;-122.260;2023-05-31T13:01:46;10.98;;;1.50;;
54005;SDS011;39919;38.160;-122.260;2023-05-31T13:04:16;15.38;;;1.92;;
54005;SDS011;39919;38.160;-122.260;2023-05-31T13:06:48;18.33;;;1.52;;
54005;SDS011;39919;38.160;-122.260;2023-05-31T13:09:17;12.45;;;1.58;;
54005;SDS011;39919;38.160;-122.260;2023-05-31T13:11:46;9.52;;;1.35;;
54005;SDS011;39919;38.160;-122.260;2023-05-31T13:14:20;14.02;;;1.98;;
54005;SDS011;39919;38.160;-122.260;2023-05-31T13:16:50;19.45;;;3.05;;
54005;SDS011;39919;38.160;-122.260;2023-05-31T13:19:19;12.25;;;2.35;;
54005;SDS011;39919;38.160;-122.260;2023-05-31T13:21:48;11.63;;;1.45;;
54005;SDS011;39919;38.160;-122.260;2023-05-31T13:24:17;10.55;;;2.17;;
54005;SDS011;39919;38.160;-122.260;2023-05-31T13:26:46;15.85;;;1.42;;
54005;SDS011;39919;38.160;-122.260;2023-05-31T13:29:21;19.17;;;2.55;;
54005;SDS011;39919;38.160;-122.260;2023-05-31T13:31:50;14.13;;;2.20;;
54005;SDS011;39919;38.160;-122.260;2023-05-31T13:34:19;8.73;;;1.80;;
54005;SDS011;39919;38.160;-122.260;2023-05-31T13:36:49;16.65;;;2.15;;
54005;SDS011;39919;38.160;-122.260;2023-05-31T13:39:21;13.52;;;2.17;;
54005;SDS011;39919;38.160;-122.260;2023-05-31T13:41:50;20.67;;;1.85;;
54005;SDS011;39919;38.160;-122.260;2023-05-31T13:44:23;17.30;;;2.50;;
54005;SDS011;39919;38.160;-122.260;2023-05-31T13:46:53;12.43;;;1.48;;
54005;SDS011;39919;38.160;-122.260;2023-05-31T13:49:22;28.77;;;2.30;;
54005;SDS011;39919;38.160;-122.260;2023-05-31T13:51:51;11.45;;;1.77;;
54005;SDS011;39919;38.160;-122.260;2023-05-31T13:54:21;12.02;;;1.35;;
54005;SDS011;39919;38.160;-122.260;2023-05-31T13:56:50;18.63;;;2.58;;
54005;SDS011;39919;38.160;-122.260;2023-05-31T13:59:26;24.88;;;3.03;;
54005;SDS011;39919;38.160;-122.260;2023-05-31T14:01:55;17.38;;;2.47;;
54005;SDS011;39919;38.160;-122.260;2023-05-31T14:04:24;15.85;;;2.28;;
54005;SDS011;39919;38.160;-122.260;2023-05-31T14:06:53;14.25;;;1.92;;
54005;SDS011;39919;38.160;-122.260;2023-05-31T14:09:23;9.73;;;1.63;;
54005;SDS011;39919;38.160;-122.260;2023-05-31T14:11:55;14.45;;;2.83;;
54005;SDS011;39919;38.160;-122.260;2023-05-31T14:14:26;14.23;;;2.35;;
54005;SDS011;39919;38.160;-122.260;2023-05-31T14:16:55;10.20;;;1.85;;
54005;SDS011;39919;38.160;-122.260;2023-05-31T14:19:25;15.05;;;2.90;;
54005;SDS011;39919;38.160;-122.260;2023-05-31T14:21:54;13.35;;;2.25;;
54005;SDS011;39919;38.160;-122.260;2023-05-31T14:24:24;10.25;;;1.40;;
54005;SDS011;39919;38.160;-122.260;2023-05-31T14:26:53;21.60;;;2.33;;
54005;SDS011;39919;38.160;-122.260;2023-05-31T14:29:22;10.02;;;1.42;;
54005;SDS011;39919;38.160;-122.260;2023-05-31T14:31:54;12.00;;;1.75;;
54005;SDS011;39919;38.160;-122.260;2023-05-31T14:34:26;9.75;;;1.60;;
54005;SDS011;39919;38.160;-122.260;2023-05-31T14:36:55;9.80;;;1.30;;
54005;SDS011;39919;38.160;-122.260;2023-05-31T14:39:26;10.23;;;1.40;;
54005;SDS011;39919;38.160;-122.260;2023-05-31T14:41:57;12.50;;;2.15;;
54005;SDS011;39919;38.160;-122.260;2023-05-31T14:44:26;5.22;;;0.88;;
54005;SDS011;39919;38.160;-122.260;2023-05-31T14:46:57;7.63;;;0.80;;
54005;SDS011;39919;38.160;-122.260;2023-05-31T14:49:26;12.52;;;1.48;;
54005;SDS011;39919;38.160;-122.260;2023-05-31T14:51:56;6.03;;;1.27;;